createdAt,value
2024-01-04T00:02:03.290Z,7.97
2024-01-04T00:06:50.578Z,8.40
2024-01-04T00:11:40.831Z,12.10
2024-01-04T00:16:28.400Z,9.63
2024-01-04T00:21:15.871Z,36.05
2024-01-04T00:26:03.486Z,7.93
2024-01-04T00:30:56.464Z,11.88
2024-01-04T00:35:43.765Z,11.45
2024-01-04T00:40:31.891Z,8.20
2024-01-04T00:45:20.626Z,8.05
2024-01-04T00:50:11.588Z,10.82
2024-01-04T00:54:59.082Z,8.77
2024-01-04T00:59:46.370Z,9.23
2024-01-04T01:04:33.992Z,11.38
2024-01-04T01:09:24.898Z,8.48
2024-01-04T01:14:12.398Z,7.53
2024-01-04T01:18:59.973Z,8.57
2024-01-04T01:23:50.188Z,8.27
2024-01-04T01:28:42.156Z,8.40
2024-01-04T01:33:29.640Z,11.88
2024-01-04T01:38:17.073Z,9.57
2024-01-04T01:43:04.819Z,14.95
2024-01-04T01:47:56.472Z,9.32
2024-01-04T01:52:45.236Z,18.60
2024-01-04T01:57:33.124Z,17.20
2024-01-04T02:02:20.815Z,18.42
2024-01-04T02:07:11.249Z,10.82
2024-01-04T02:12:06.247Z,9.25
2024-01-04T02:16:53.654Z,16.98
2024-01-04T02:21:41.273Z,7.75
2024-01-04T02:26:32.700Z,26.33
2024-01-04T02:31:19.976Z,9.25
2024-01-04T02:36:07.959Z,13.05
2024-01-04T02:40:57.873Z,8.38
2024-01-04T02:45:47.787Z,16.10
2024-01-04T02:50:35.249Z,16.73
2024-01-04T02:55:22.586Z,8.65
2024-01-04T03:00:11.422Z,14.38
2024-01-04T03:05:01.581Z,11.80
2024-01-04T03:09:49.292Z,13.60
2024-01-04T03:14:36.652Z,15.32
2024-01-04T03:19:24.259Z,20.27
2024-01-04T03:24:14.344Z,14.30
2024-01-04T03:29:01.838Z,19.60
2024-01-04T03:33:49.386Z,10.50
2024-01-04T03:38:36.764Z,13.95
2024-01-04T03:43:26.863Z,13.18
2024-01-04T03:48:14.398Z,10.55
2024-01-04T03:53:01.798Z,12.02
2024-01-04T03:57:49.140Z,6.18
2024-01-04T04:02:39.476Z,11.18
2024-01-04T04:07:32.781Z,10.48
2024-01-04T04:12:20.349Z,10.32
2024-01-04T04:17:07.649Z,8.05
2024-01-04T04:21:57.659Z,4.40
2024-01-04T04:26:45.236Z,4.72
2024-01-04T04:31:32.690Z,5.38
2024-01-04T04:36:20.420Z,6.72
2024-01-04T04:41:10.832Z,4.00
2024-01-04T04:45:58.686Z,2.78
2024-01-04T04:50:46.022Z,2.22
2024-01-04T04:55:35.240Z,2.55
2024-01-04T05:00:25.418Z,4.68
2024-01-04T05:05:15.488Z,6.10
2024-01-04T05:10:02.906Z,4.20
2024-01-04T05:14:50.281Z,5.00
2024-01-04T05:19:40.602Z,7.07
2024-01-04T05:24:38.092Z,15.50
2024-01-04T05:29:25.575Z,9.80
2024-01-04T05:34:17.046Z,10.57
2024-01-04T05:39:07.835Z,12.40
2024-01-04T05:43:55.268Z,9.32
2024-01-04T05:48:43.019Z,11.43
2024-01-04T05:53:30.472Z,24.35
2024-01-04T05:58:20.320Z,10.82
2024-01-04T06:03:07.659Z,12.73
2024-01-04T06:07:55.017Z,5.28
2024-01-04T06:12:43.593Z,4.18
2024-01-04T06:17:33.497Z,3.53
2024-01-04T06:22:20.795Z,4.55
2024-01-04T06:27:08.306Z,2.42
2024-01-04T06:31:55.738Z,4.00
2024-01-04T06:36:45.729Z,3.28
2024-01-04T06:41:33.430Z,3.45
2024-01-04T06:46:21.081Z,4.38
2024-01-04T06:51:08.468Z,1.33
2024-01-04T06:55:59.915Z,1.73
2024-01-04T07:00:47.640Z,3.72
2024-01-04T07:05:35.500Z,8.90
2024-01-04T07:10:23.189Z,5.65
2024-01-04T07:15:13.717Z,1.67
2024-01-04T07:20:00.955Z,3.45
2024-01-04T07:24:50.637Z,4.18
2024-01-04T07:29:39.339Z,4.78
2024-01-04T07:34:29.487Z,4.15
2024-01-04T07:39:17.162Z,5.93
2024-01-04T07:44:04.750Z,4.15
2024-01-04T07:48:52.328Z,3.40
2024-01-04T07:53:42.399Z,4.13
2024-01-04T07:58:29.699Z,10.10
2024-01-04T08:03:17.441Z,6.47
2024-01-04T08:08:08.179Z,4.85
2024-01-04T08:12:58.204Z,3.03
2024-01-04T08:17:45.681Z,5.65
2024-01-04T08:22:33.629Z,9.20
2024-01-04T08:27:21.219Z,5.72
2024-01-04T08:32:11.070Z,8.93
2024-01-04T08:36:59.139Z,9.93
2024-01-04T08:41:46.326Z,11.82
2024-01-04T08:46:33.541Z,11.13
2024-01-04T08:51:23.363Z,7.05
2024-01-04T08:56:10.943Z,5.70
2024-01-04T09:00:58.386Z,7.85
2024-01-04T09:05:45.982Z,6.28
2024-01-04T09:10:36.037Z,4.35
2024-01-04T09:15:23.543Z,5.00
2024-01-04T09:20:11.686Z,7.53
2024-01-04T09:24:59.338Z,4.07
2024-01-04T09:29:49.279Z,4.35
2024-01-04T09:34:36.449Z,7.90
2024-01-04T09:39:24.139Z,5.70
2024-01-04T09:44:12.468Z,4.07
2024-01-04T09:49:04.983Z,5.55
2024-01-04T09:53:53.722Z,5.15
2024-01-04T09:58:41.218Z,6.57
2024-01-04T10:03:29.168Z,7.45
2024-01-04T10:08:52.457Z,4.97
2024-01-04T10:13:43.765Z,8.73
2024-01-04T10:18:31.643Z,10.70
2024-01-04T10:23:19.077Z,9.88
2024-01-04T10:28:12.704Z,10.07
2024-01-04T10:33:01.332Z,10.25
2024-01-04T10:37:57.406Z,12.18
2024-01-04T10:42:52.644Z,7.45
2024-01-04T10:47:49.078Z,8.35
2024-01-04T10:52:43.409Z,7.13
2024-01-04T10:57:32.473Z,8.45
2024-01-04T11:02:34.268Z,12.35
2024-01-04T11:07:30.487Z,23.48
2024-01-04T11:12:21.380Z,10.27
2024-01-04T11:17:36.198Z,4.68
2024-01-04T11:22:53.724Z,6.03
2024-01-04T11:27:48.374Z,6.95
2024-01-04T11:32:36.471Z,4.82
2024-01-04T11:37:24.586Z,5.20
2024-01-04T11:42:51.614Z,5.75
2024-01-04T11:47:41.053Z,9.68
2024-01-04T11:52:28.598Z,11.20
2024-01-04T11:57:22.533Z,6.22
2024-01-04T12:02:18.440Z,8.57
2024-01-04T12:07:07.024Z,8.70
2024-01-04T12:11:59.187Z,6.45
2024-01-04T12:16:53.765Z,5.15
2024-01-04T12:22:00.536Z,5.03
2024-01-04T12:31:48.786Z,4.60
2024-01-04T12:41:30.383Z,4.35
2024-01-04T12:46:20.657Z,5.75
2024-01-04T12:51:08.658Z,12.95
2024-01-04T12:55:56.556Z,8.77
2024-01-04T13:00:49.319Z,15.13
2024-01-04T13:05:38.036Z,15.05
2024-01-04T13:10:27.253Z,15.98
2024-01-04T13:15:14.851Z,17.33
2024-01-04T13:20:06.072Z,21.17
2024-01-04T13:24:53.450Z,23.00
2024-01-04T13:29:40.901Z,21.80
2024-01-04T13:34:37.741Z,17.83
2024-01-04T13:39:28.808Z,14.98
2024-01-04T13:44:16.398Z,17.67
2024-01-04T13:49:03.906Z,13.52
2024-01-04T13:53:51.180Z,21.63
2024-01-04T13:58:41.073Z,19.67
2024-01-04T14:03:37.497Z,14.20
2024-01-04T14:08:26.810Z,20.65
2024-01-04T14:13:15.256Z,15.00
2024-01-04T14:18:05.656Z,16.10
2024-01-04T14:22:53.267Z,20.95
2024-01-04T14:27:40.571Z,13.20
2024-01-04T14:32:28.843Z,13.68
2024-01-04T14:37:18.801Z,18.95
2024-01-04T14:42:07.039Z,13.63
2024-01-04T14:46:54.623Z,16.38
2024-01-04T14:51:41.854Z,22.52
2024-01-04T14:56:31.725Z,13.63
2024-01-04T15:01:22.276Z,23.05
2024-01-04T15:06:11.755Z,14.85
2024-01-04T15:11:00.260Z,12.80
2024-01-04T15:15:50.249Z,18.30
2024-01-04T15:20:38.586Z,24.58
2024-01-04T15:25:26.034Z,27.60
2024-01-04T15:30:18.055Z,17.08
2024-01-04T15:35:09.158Z,13.82
2024-01-04T15:39:56.449Z,16.17
2024-01-04T15:44:43.702Z,26.17
2024-01-04T15:49:31.105Z,17.45
2024-01-04T15:54:21.122Z,24.27
2024-01-04T15:59:08.455Z,20.13
2024-01-04T16:03:56.019Z,23.85
2024-01-04T16:08:43.514Z,26.58
2024-01-04T16:13:33.397Z,19.67
2024-01-04T16:18:20.856Z,22.25
2024-01-04T16:23:08.245Z,17.35
2024-01-04T16:27:55.738Z,20.75
2024-01-04T16:32:46.099Z,18.05
2024-01-04T16:37:33.344Z,23.08
2024-01-04T16:42:20.832Z,23.13
2024-01-04T16:47:08.156Z,27.02
2024-01-04T16:51:58.101Z,23.27
2024-01-04T16:56:45.521Z,25.10
2024-01-04T17:01:33.094Z,22.35
2024-01-04T17:06:20.571Z,26.65
2024-01-04T17:11:11.293Z,24.38
2024-01-04T17:15:58.472Z,26.70
2024-01-04T17:20:45.692Z,37.97
2024-01-04T17:25:33.042Z,38.88
2024-01-04T17:30:23.233Z,36.17
2024-01-04T17:35:10.905Z,43.50
2024-01-04T17:40:00.567Z,44.35
2024-01-04T17:44:48.003Z,34.30
2024-01-04T17:49:38.009Z,27.50
2024-01-04T17:54:25.466Z,26.13
2024-01-04T17:59:16.325Z,19.73
2024-01-04T18:04:03.766Z,22.90
2024-01-04T18:08:54.729Z,27.85
2024-01-04T18:13:42.370Z,19.80
2024-01-04T18:18:29.901Z,23.60
2024-01-04T18:23:17.388Z,21.92
2024-01-04T18:28:08.894Z,20.10
2024-01-04T18:32:56.386Z,29.33
2024-01-04T18:37:43.753Z,21.20
2024-01-04T18:42:31.093Z,16.40
2024-01-04T18:47:22.192Z,26.30
2024-01-04T18:52:09.529Z,25.00
2024-01-04T18:56:58.971Z,22.50
2024-01-04T19:01:46.363Z,30.70
2024-01-04T19:06:36.256Z,14.73
2024-01-04T19:11:24.603Z,22.13
2024-01-04T19:16:12.177Z,20.42
2024-01-04T19:20:59.643Z,24.83
2024-01-04T19:25:49.632Z,25.10
2024-01-04T19:30:37.327Z,19.40
2024-01-04T19:35:24.561Z,23.48
2024-01-04T19:40:13.496Z,30.70
2024-01-04T19:45:03.897Z,21.30
2024-01-04T19:49:52.488Z,26.67
2024-01-04T19:54:39.826Z,20.73
2024-01-04T19:59:27.176Z,23.80
2024-01-04T20:04:17.333Z,17.98
2024-01-04T20:09:04.839Z,22.20
2024-01-04T20:13:52.339Z,19.15
2024-01-04T20:18:39.891Z,24.05
2024-01-04T20:29:05.833Z,16.85
2024-01-04T20:33:53.654Z,21.38
2024-01-04T20:38:41.130Z,15.45
2024-01-04T20:43:28.840Z,29.45
2024-01-04T20:48:20.705Z,24.58
2024-01-04T21:36:22.647Z,33.95
2024-01-04T21:41:12.575Z,21.80
2024-01-04T21:46:17.168Z,22.98
2024-01-04T21:51:07.216Z,24.30
2024-01-04T21:55:57.479Z,24.55
2024-01-04T22:00:45.049Z,23.42
2024-01-04T22:05:32.501Z,31.80
2024-01-04T22:10:25.767Z,31.02
2024-01-04T22:15:19.106Z,24.80
2024-01-04T22:20:08.182Z,24.73
2024-01-04T22:24:58.528Z,26.40
2024-01-04T22:29:51.636Z,24.48
2024-01-04T22:34:45.170Z,27.70
2024-01-04T22:39:33.163Z,26.55
2024-01-04T22:44:22.372Z,23.30
2024-01-04T22:49:10.467Z,28.92
2024-01-04T22:54:01.398Z,28.08
2024-01-04T22:58:49.360Z,28.48
2024-01-04T23:03:39.984Z,20.08
2024-01-04T23:08:31.101Z,20.17
2024-01-04T23:13:33.133Z,22.73
2024-01-04T23:18:21.869Z,22.48
2024-01-04T23:23:13.542Z,24.55
2024-01-04T23:28:04.887Z,21.90
2024-01-04T23:32:57.416Z,25.15
2024-01-04T23:37:48.222Z,24.42
2024-01-04T23:42:36.109Z,18.08
2024-01-04T23:47:31.549Z,27.50
2024-01-04T23:52:22.230Z,20.47
2024-01-04T23:57:11.131Z,20.13
